Time;durP1;ratioP1;P1;durP2;ratioP2;P2;SDS_P1;SDS_P2;PMS_P1;PMS_P2;Temp;Humidity;BMP_temperature;BMP_pressure;BME280_temperature;BME280_humidity;BME280_pressure;Samples;Min_cycle;Max_cycle;Signal;HPM_P1;HPM_P2
2023/02/03 00:01:33;;;;;;;39.92;23.80;;;0.50;99.90;;;;;;5053443;28;20395;-77
2023/02/03 00:03:59;;;;;;;48.90;27.42;;;0.40;99.90;;;;;;5051749;28;20044;-76
2023/02/03 00:06:26;;;;;;;42.95;24.77;;;0.50;99.90;;;;;;5053048;28;20021;-75
2023/02/03 00:08:58;;;;;;;43.65;23.27;;;0.50;99.90;;;;;;5052803;28;20404;-77
2023/02/03 00:11:25;;;;;;;50.60;23.65;;;0.50;99.90;;;;;;5053175;28;20013;-76
2023/02/03 00:13:51;;;;;;;48.28;24.90;;;0.40;99.90;;;;;;5053034;28;20403;-77
2023/02/03 00:16:17;;;;;;;40.80;23.67;;;0.40;99.90;;;;;;5052907;28;20025;-77
2023/02/03 00:18:42;;;;;;;46.80;26.17;;;0.40;99.90;;;;;;5053094;28;20028;-77
2023/02/03 00:21:08;;;;;;;41.80;22.63;;;0.40;99.90;;;;;;5052709;28;20021;-75
2023/02/03 00:23:34;;;;;;;44.13;22.33;;;0.40;99.90;;;;;;5050966;28;20100;-78
2023/02/03 00:26:08;;;;;;;42.58;24.70;;;0.30;99.90;;;;;;5051106;28;20025;-74
2023/02/03 00:28:34;;;;;;;48.22;22.70;;;0.30;99.90;;;;;;5052426;28;20063;-76
2023/02/03 00:30:59;;;;;;;49.65;25.00;;;0.40;99.90;;;;;;5052755;28;20496;-77
2023/02/03 00:33:25;;;;;;;52.15;26.05;;;0.40;99.90;;;;;;5050465;28;20032;-76
2023/02/03 00:35:51;;;;;;;43.97;24.95;;;0.40;99.90;;;;;;5049532;28;20103;-74
2023/02/03 00:38:17;;;;;;;45.90;24.65;;;0.40;99.90;;;;;;5051661;28;20802;-77
2023/02/03 00:40:51;;;;;;;48.97;25.08;;;0.40;99.90;;;;;;5035907;28;20028;-76
2023/02/03 00:43:17;;;;;;;47.33;24.67;;;0.50;99.90;;;;;;5044283;28;20466;-77
2023/02/03 00:45:43;;;;;;;46.85;25.95;;;0.40;99.90;;;;;;5046695;28;20028;-76
2023/02/03 00:48:09;;;;;;;41.70;23.73;;;0.40;99.90;;;;;;5044569;28;20017;-76
2023/02/03 00:50:35;;;;;;;42.05;19.70;;;0.40;99.90;;;;;;5033329;28;20387;-76
2023/02/03 00:53:01;;;;;;;40.50;22.50;;;0.30;99.90;;;;;;5033729;28;20025;-76
2023/02/03 00:55:27;;;;;;;43.13;24.33;;;0.30;99.90;;;;;;5035587;28;20028;-77
2023/02/03 00:57:53;;;;;;;46.10;24.13;;;0.20;99.90;;;;;;5034166;28;20038;-78
2023/02/03 01:00:19;;;;;;;39.20;21.58;;;0.30;99.90;;;;;;5035568;28;20375;-78
2023/02/03 01:02:45;;;;;;;47.10;26.73;;;0.30;99.90;;;;;;5033868;28;20022;-77
2023/02/03 01:05:11;;;;;;;47.40;25.23;;;0.30;99.90;;;;;;5035238;28;20037;-78
2023/02/03 01:07:37;;;;;;;47.20;23.98;;;0.20;99.90;;;;;;5034823;28;20176;-77
2023/02/03 01:10:04;;;;;;;46.70;25.33;;;0.20;99.90;;;;;;5040095;28;20061;-75
2023/02/03 01:12:30;;;;;;;39.20;22.13;;;0.20;99.90;;;;;;5035645;28;20326;-76
2023/02/03 01:14:57;;;;;;;38.92;19.85;;;0.10;99.90;;;;;;5033768;28;20033;-76
2023/02/03 01:17:23;;;;;;;45.22;20.08;;;0.00;99.90;;;;;;5035130;28;20090;-76
2023/02/03 01:19:50;;;;;;;48.90;24.65;;;-0.10;99.90;;;;;;5033711;28;20026;-76
2023/02/03 01:22:16;;;;;;;49.78;24.13;;;-0.10;99.90;;;;;;5034752;28;20022;-76
2023/02/03 01:24:42;;;;;;;47.13;25.25;;;-0.10;99.90;;;;;;5033456;28;20026;-76
2023/02/03 01:27:08;;;;;;;46.33;23.92;;;-0.10;99.90;;;;;;5041794;28;20056;-77
2023/02/03 01:29:33;;;;;;;45.08;24.55;;;-0.10;99.90;;;;;;5051334;28;20365;-78
2023/02/03 01:31:59;;;;;;;56.60;28.38;;;0.00;99.90;;;;;;5049085;28;20035;-78
2023/02/03 01:34:25;;;;;;;57.10;26.02;;;0.00;99.90;;;;;;5051250;28;20025;-77
2023/02/03 01:36:51;;;;;;;49.20;24.98;;;0.00;99.90;;;;;;5031687;28;20044;-78
2023/02/03 01:39:17;;;;;;;43.20;23.88;;;0.00;99.90;;;;;;5031617;28;20056;-77
2023/02/03 01:41:43;;;;;;;51.35;26.23;;;-0.10;99.90;;;;;;5033187;28;20034;-76
2023/02/03 01:44:44;;;;;;;50.42;26.10;;;-0.10;99.90;;;;;;5046977;28;20017;-75
2023/02/03 01:47:30;;;;;;;51.50;23.15;;;-0.10;99.90;;;;;;5031538;28;20060;-77
2023/02/03 01:50:02;;;;;;;44.33;22.90;;;0.00;99.90;;;;;;5031422;28;20025;-76
2023/02/03 01:52:29;;;;;;;51.97;28.15;;;0.00;99.90;;;;;;5031438;28;20036;-75
2023/02/03 01:54:57;;;;;;;44.42;23.35;;;0.00;99.90;;;;;;5031620;28;20436;-77
2023/02/03 01:57:32;;;;;;;45.25;23.65;;;0.10;99.90;;;;;;5033658;28;20116;-80
2023/02/03 01:59:59;;;;;;;51.28;26.05;;;0.10;99.90;;;;;;5032177;28;20021;-79
2023/02/03 02:02:26;;;;;;;61.35;27.90;;;0.00;99.90;;;;;;5016658;28;20032;-77
2023/02/03 02:05:10;;;;;;;56.50;29.08;;;0.00;99.90;;;;;;5049065;28;20032;-79
2023/02/03 02:07:36;;;;;;;49.33;26.63;;;0.00;99.90;;;;;;5038405;28;20432;-77
2023/02/03 02:10:03;;;;;;;56.03;28.30;;;0.10;99.90;;;;;;5034247;28;20769;-79
2023/02/03 02:12:29;;;;;;;54.38;26.00;;;0.10;99.90;;;;;;5047600;28;20013;-78
2023/02/03 02:14:56;;;;;;;48.17;28.15;;;0.10;99.90;;;;;;5040196;28;20044;-78
2023/02/03 02:17:53;;;;;;;41.27;20.70;;;0.20;99.90;;;;;;5048511;28;20036;-79
2023/02/03 02:20:40;;;;;;;44.78;23.50;;;0.20;99.90;;;;;;5023881;28;20277;-76
2023/02/03 02:23:36;;;;;;;39.03;20.33;;;0.10;99.90;;;;;;5031139;28;20043;-75
2023/02/03 02:26:24;;;;;;;47.78;23.20;;;0.00;99.90;;;;;;5032768;28;20502;-75
2023/02/03 02:29:09;;;;;;;51.88;26.77;;;0.00;99.90;;;;;;5050827;28;20017;-75
2023/02/03 02:31:50;;;;;;;46.45;25.33;;;0.00;99.90;;;;;;5050434;28;20024;-74
2023/02/03 02:34:21;;;;;;;44.28;24.05;;;0.10;99.90;;;;;;5052148;28;20028;-77
2023/02/03 02:37:08;;;;;;;53.55;29.42;;;0.20;99.90;;;;;;5054543;28;20515;-77
2023/02/03 02:39:52;;;;;;;55.85;31.27;;;0.20;99.90;;;;;;5054326;28;20025;-76
2023/02/03 02:42:43;;;;;;;43.58;21.83;;;0.30;99.90;;;;;;5036653;28;20033;-75
2023/02/03 02:45:21;;;;;;;44.20;25.33;;;0.40;99.90;;;;;;5035037;28;20128;-77
2023/02/03 02:47:49;;;;;;;51.05;26.27;;;0.30;99.90;;;;;;5048606;28;20037;-77
2023/02/03 02:50:27;;;;;;;49.50;26.33;;;0.40;99.90;;;;;;5026976;28;20021;-77
2023/02/03 02:52:55;;;;;;;47.45;23.15;;;0.40;99.90;;;;;;5054116;28;20042;-76
2023/02/03 02:55:26;;;;;;;50.05;25.27;;;0.40;99.90;;;;;;5036148;28;20017;-78
2023/02/03 02:57:59;;;;;;;49.15;27.35;;;0.30;99.90;;;;;;5054105;28;20029;-77
2023/02/03 03:00:30;;;;;;;44.95;22.60;;;0.30;99.90;;;;;;5053872;28;20503;-78
2023/02/03 03:02:56;;;;;;;53.03;23.73;;;0.30;99.90;;;;;;5036226;28;20025;-77
2023/02/03 03:05:24;;;;;;;45.13;24.77;;;0.30;99.90;;;;;;5053821;28;20013;-76
2023/02/03 03:07:58;;;;;;;43.63;21.65;;;0.20;99.90;;;;;;5053839;28;20443;-78
2023/02/03 03:10:29;;;;;;;44.53;27.00;;;0.20;99.90;;;;;;5053725;28;20025;-78
2023/02/03 03:13:00;;;;;;;54.28;26.55;;;0.20;99.90;;;;;;5052524;28;20060;-78
2023/02/03 03:15:30;;;;;;;39.53;20.05;;;0.20;99.90;;;;;;5050200;28;20070;-76
2023/02/03 03:18:42;;;;;;;46.65;23.35;;;0.30;99.90;;;;;;5049707;28;20086;-78
2023/02/03 03:21:12;;;;;;;50.20;24.02;;;0.20;99.90;;;;;;5049922;28;20075;-76
2023/02/03 03:23:41;;;;;;;41.72;21.65;;;0.20;99.90;;;;;;5053898;28;20084;-77
2023/02/03 03:26:34;;;;;;;47.17;24.67;;;0.20;99.90;;;;;;5053607;28;20025;-76
2023/02/03 03:29:15;;;;;;;47.45;23.98;;;0.30;99.90;;;;;;5053937;28;20349;-75
2023/02/03 03:31:41;;;;;;;47.40;23.83;;;0.30;99.90;;;;;;5053450;28;20024;-76
2023/02/03 03:34:11;;;;;;;43.22;22.02;;;0.30;99.90;;;;;;5049546;28;20029;-77
2023/02/03 03:36:53;;;;;;;54.00;24.17;;;0.30;99.90;;;;;;5053859;28;20116;-76
2023/02/03 03:39:41;;;;;;;44.08;24.23;;;0.30;99.90;;;;;;5054574;28;20017;-77
2023/02/03 03:42:12;;;;;;;;;;;0.30;99.90;;;;;;5044599;28;20025;-77
2023/02/03 03:45:15;;;;;;;45.58;22.40;;;0.20;99.90;;;;;;5054262;28;19916;-76
2023/02/03 03:47:58;;;;;;;46.10;22.23;;;0.20;99.90;;;;;;5032845;28;20591;-75
2023/02/03 03:50:45;;;;;;;44.88;21.95;;;0.20;99.90;;;;;;5053097;28;20024;-75
2023/02/03 03:53:11;;;;;;;;;;;0.20;99.90;;;;;;5053252;28;20025;-76
2023/02/03 03:55:40;;;;;;;38.72;20.40;;;0.20;99.90;;;;;;5035288;28;19904;-76
2023/02/03 03:58:23;;;;;;;49.58;23.50;;;0.20;99.90;;;;;;5053430;28;20435;-77
2023/02/03 04:00:51;;;;;;;50.45;23.77;;;0.20;99.90;;;;;;5040963;28;20082;-76
2023/02/03 04:03:23;;;;;;;49.85;22.35;;;0.30;99.90;;;;;;5048037;28;20083;-77
2023/02/03 04:05:49;;;;;;;47.70;23.08;;;0.30;99.90;;;;;;5045524;28;20017;-76
2023/02/03 04:08:15;;;;;;;44.08;22.90;;;0.30;99.90;;;;;;5052782;28;20044;-76
2023/02/03 04:10:41;;;;;;;63.80;26.95;;;0.30;99.90;;;;;;5052747;28;20037;-76
2023/02/03 04:13:11;;;;;;;37.92;20.55;;;0.40;99.90;;;;;;5052899;28;20066;-77
2023/02/03 04:15:37;;;;;;;59.53;25.77;;;0.40;99.90;;;;;;5034656;28;20036;-76
2023/02/03 04:18:04;;;;;;;44.80;25.73;;;0.40;99.90;;;;;;5034610;28;20483;-75
2023/02/03 04:20:31;;;;;;;48.45;24.52;;;0.40;99.90;;;;;;5052831;28;20025;-76
2023/02/03 04:22:58;;;;;;;50.47;22.25;;;0.50;99.90;;;;;;5052702;28;20029;-76
2023/02/03 04:25:24;;;;;;;45.10;19.83;;;0.50;99.90;;;;;;5052583;28;20036;-77
2023/02/03 04:27:50;;;;;;;49.25;19.45;;;0.50;99.90;;;;;;5052720;28;20033;-77
2023/02/03 04:30:17;;;;;;;49.72;25.17;;;0.50;99.90;;;;;;5052640;28;20028;-76
2023/02/03 04:32:44;;;;;;;42.72;21.42;;;0.50;99.90;;;;;;5051527;28;20033;-76
2023/02/03 04:35:10;;;;;;;57.10;24.10;;;0.50;99.90;;;;;;5052616;28;20013;-77
2023/02/03 04:37:36;;;;;;;49.80;26.45;;;0.50;99.90;;;;;;5052236;28;20155;-75
2023/02/03 04:40:02;;;;;;;47.60;22.17;;;0.50;99.90;;;;;;5052283;28;20151;-75
2023/02/03 04:42:28;;;;;;;47.28;24.73;;;0.50;99.90;;;;;;5050777;28;20043;-75
2023/02/03 04:44:54;;;;;;;46.20;23.67;;;0.50;99.90;;;;;;5051985;28;20021;-76
2023/02/03 04:47:20;;;;;;;47.17;24.70;;;0.50;99.90;;;;;;5034318;28;20021;-74
2023/02/03 04:49:45;;;;;;;46.00;24.90;;;0.50;99.90;;;;;;5052060;28;20025;-76
2023/02/03 04:52:12;;;;;;;48.80;23.05;;;0.60;99.90;;;;;;5052025;28;20031;-75
2023/02/03 04:54:38;;;;;;;40.22;21.33;;;0.60;99.90;;;;;;5051881;28;20104;-75
2023/02/03 04:57:05;;;;;;;43.80;23.55;;;0.60;99.90;;;;;;5037634;28;20155;-76
2023/02/03 04:59:31;;;;;;;50.47;21.33;;;0.70;99.90;;;;;;5051815;28;20546;-75
2023/02/03 05:01:56;;;;;;;44.75;23.83;;;0.70;99.90;;;;;;5045453;28;20278;-76
2023/02/03 05:04:22;;;;;;;47.40;22.00;;;0.70;99.90;;;;;;5047649;28;20108;-77
2023/02/03 05:06:48;;;;;;;40.67;21.20;;;0.70;99.90;;;;;;5047195;28;20128;-77
2023/02/03 05:09:14;;;;;;;45.03;23.08;;;0.80;99.90;;;;;;5045514;28;20094;-75
2023/02/03 05:11:40;;;;;;;42.17;24.88;;;0.80;99.90;;;;;;5035285;28;20036;-76
2023/02/03 05:14:06;;;;;;;50.03;23.85;;;0.70;99.90;;;;;;5033887;28;20380;-76
2023/02/03 05:16:32;;;;;;;50.33;24.95;;;0.80;99.90;;;;;;5045902;28;20027;-76
2023/02/03 05:18:58;;;;;;;51.75;25.50;;;0.80;99.90;;;;;;5051538;28;20025;-76
2023/02/03 05:21:24;;;;;;;47.28;22.83;;;0.90;99.90;;;;;;5045565;28;20021;-76
2023/02/03 05:23:49;;;;;;;45.92;23.25;;;1.00;99.90;;;;;;5051376;28;20025;-76
2023/02/03 05:26:15;;;;;;;45.92;24.88;;;0.90;99.90;;;;;;5033802;28;20542;-76
2023/02/03 05:28:41;;;;;;;47.13;24.67;;;1.00;99.90;;;;;;5051580;28;20077;-77
2023/02/03 05:31:07;;;;;;;37.67;21.83;;;1.00;99.90;;;;;;5047652;28;20032;-76
2023/02/03 05:33:33;;;;;;;46.30;26.33;;;1.00;99.90;;;;;;5051288;28;20101;-76
2023/02/03 05:35:59;;;;;;;47.38;25.00;;;1.00;99.90;;;;;;5050965;28;20025;-76
2023/02/03 05:38:25;;;;;;;48.67;24.92;;;1.00;99.90;;;;;;5050953;28;20039;-77
2023/02/03 05:43:36;;;;;;;45.88;21.80;;;1.10;99.90;;;;;;5051065;28;20164;-77
2023/02/03 05:46:06;;;;;;;47.97;24.42;;;1.10;99.90;;;;;;5050996;28;20013;-76
2023/02/03 05:48:32;;;;;;;45.72;24.20;;;1.10;99.90;;;;;;5050883;28;20024;-76
2023/02/03 05:50:58;;;;;;;42.15;25.55;;;1.00;99.90;;;;;;5043909;28;20051;-77
2023/02/03 05:53:25;;;;;;;49.72;25.60;;;1.10;99.90;;;;;;5050978;28;20025;-76
2023/02/03 05:55:51;;;;;;;49.75;24.67;;;1.10;99.90;;;;;;5050500;28;20434;-77
2023/02/03 05:58:17;;;;;;;49.50;26.20;;;1.10;99.90;;;;;;5050586;28;20068;-78
2023/02/03 06:00:43;;;;;;;48.67;23.00;;;1.10;99.90;;;;;;5050774;28;20165;-76
2023/02/03 06:03:08;;;;;;;45.40;24.63;;;1.20;99.90;;;;;;5051070;28;20365;-77
2023/02/03 06:05:39;;;;;;;46.03;23.90;;;1.20;99.90;;;;;;5047068;28;20050;-77
2023/02/03 06:08:07;;;;;;;50.22;25.05;;;1.10;99.90;;;;;;5043710;28;20091;-76
2023/02/03 06:10:33;;;;;;;55.33;26.20;;;1.10;99.90;;;;;;5054835;28;20100;-77
2023/02/03 06:13:06;;;;;;;50.92;22.85;;;1.00;99.90;;;;;;5054806;28;20442;-77
2023/02/03 06:15:32;;;;;;;54.17;26.35;;;1.00;99.90;;;;;;5054543;28;20051;-76
2023/02/03 06:17:58;;;;;;;45.85;21.33;;;1.00;99.90;;;;;;5054684;28;20425;-76
2023/02/03 06:20:23;;;;;;;48.55;23.83;;;0.90;99.90;;;;;;5054139;28;20029;-77
2023/02/03 06:22:49;;;;;;;51.67;23.15;;;0.90;99.90;;;;;;5055038;28;20029;-76
2023/02/03 06:25:15;;;;;;;47.42;23.50;;;0.90;99.90;;;;;;5053130;28;20025;-76
2023/02/03 06:27:41;;;;;;;46.83;24.10;;;0.90;99.90;;;;;;5053174;28;20098;-76
2023/02/03 06:30:07;;;;;;;48.92;26.00;;;0.90;99.90;;;;;;5054218;28;20048;-76
2023/02/03 06:32:33;;;;;;;44.65;23.08;;;1.00;99.90;;;;;;5052837;28;20090;-76
2023/02/03 06:34:59;;;;;;;42.53;24.48;;;1.00;99.90;;;;;;5054516;28;20017;-78
2023/02/03 06:37:25;;;;;;;48.08;22.42;;;1.10;99.90;;;;;;5053853;28;20037;-77
2023/02/03 06:39:51;;;;;;;49.80;25.52;;;1.20;99.90;;;;;;5053986;28;20484;-76
2023/02/03 06:42:17;;;;;;;42.78;22.77;;;1.10;99.90;;;;;;5051626;28;20029;-78
2023/02/03 06:44:43;;;;;;;46.85;24.73;;;1.10;99.90;;;;;;5053886;28;20036;-77
2023/02/03 06:47:09;;;;;;;42.53;22.02;;;1.10;99.90;;;;;;5054591;28;20025;-76
2023/02/03 06:49:34;;;;;;;43.38;21.42;;;1.20;99.90;;;;;;5051610;28;20441;-77
2023/02/03 06:52:00;;;;;;;49.13;26.42;;;1.20;99.90;;;;;;5043872;28;20392;-77
2023/02/03 06:54:26;;;;;;;46.85;22.80;;;1.20;99.90;;;;;;5053778;28;20089;-77
2023/02/03 06:56:52;;;;;;;44.15;20.80;;;1.20;99.90;;;;;;5054145;28;20127;-77
2023/02/03 06:59:17;;;;;;;44.60;24.42;;;1.20;99.90;;;;;;5044629;28;20029;-76
2023/02/03 07:01:43;;;;;;;47.00;21.75;;;1.20;99.90;;;;;;5053553;28;20033;-77
2023/02/03 07:04:09;;;;;;;32.50;17.98;;;1.20;99.90;;;;;;5047412;28;20021;-78
2023/02/03 07:06:35;;;;;;;44.85;25.30;;;1.20;99.90;;;;;;5046188;28;20017;-79
2023/02/03 07:09:03;;;;;;;47.97;22.75;;;1.10;99.90;;;;;;5042654;28;20134;-78
2023/02/03 07:11:30;;;;;;;37.08;18.05;;;1.10;99.90;;;;;;5053689;28;20135;-78
2023/02/03 07:13:56;;;;;;;42.80;18.03;;;1.10;99.90;;;;;;5053754;28;20024;-76
2023/02/03 07:16:22;;;;;;;45.72;22.48;;;1.10;99.90;;;;;;5052579;28;20016;-78
2023/02/03 07:18:48;;;;;;;44.40;22.75;;;1.10;99.90;;;;;;5053592;28;20045;-77
2023/02/03 07:21:15;;;;;;;47.90;23.17;;;1.20;99.90;;;;;;5052896;28;20491;-76
2023/02/03 07:23:41;;;;;;;47.15;26.52;;;1.30;99.90;;;;;;5035582;28;20033;-77
2023/02/03 07:26:07;;;;;;;49.80;22.60;;;1.50;99.90;;;;;;5053442;28;20028;-76
2023/02/03 07:28:34;;;;;;;36.22;17.23;;;1.50;99.90;;;;;;5053791;28;20027;-76
2023/02/03 07:31:01;;;;;;;45.83;22.75;;;1.50;99.90;;;;;;5053533;28;20075;-77
2023/02/03 07:33:27;;;;;;;39.45;20.73;;;1.40;99.90;;;;;;5051464;28;20025;-76
2023/02/03 07:35:53;;;;;;;41.50;20.42;;;1.40;99.90;;;;;;5053491;28;20490;-76
2023/02/03 07:38:20;;;;;;;35.85;19.33;;;1.30;99.90;;;;;;5035308;28;20116;-76
2023/02/03 07:40:45;;;;;;;38.95;19.67;;;1.30;99.90;;;;;;5035586;28;20025;-77
2023/02/03 07:43:12;;;;;;;36.05;19.08;;;1.30;99.90;;;;;;5053276;28;20118;-77
2023/02/03 07:45:37;;;;;;;35.22;18.17;;;1.20;99.90;;;;;;5053550;28;20499;-76
2023/02/03 07:48:03;;;;;;;31.85;16.83;;;1.30;99.90;;;;;;5050672;28;20117;-77
2023/02/03 07:50:29;;;;;;;34.30;15.82;;;1.40;99.90;;;;;;5048764;28;20021;-78
2023/02/03 07:52:55;;;;;;;39.60;19.02;;;1.30;99.90;;;;;;5053040;28;20021;-77
2023/02/03 07:55:22;;;;;;;35.17;16.38;;;1.30;99.90;;;;;;5035093;28;20048;-77
2023/02/03 07:57:48;;;;;;;33.78;17.48;;;1.30;99.90;;;;;;5053455;28;20075;-77
2023/02/03 08:00:15;;;;;;;39.97;17.13;;;1.40;99.90;;;;;;5054087;28;20021;-77
2023/02/03 08:02:41;;;;;;;;;;;1.30;99.90;;;;;;5053896;28;20056;-79
2023/02/03 08:05:08;;;;;;;43.65;19.92;;;1.30;99.90;;;;;;5052751;28;19966;-76
2023/02/03 08:07:34;;;;;;;34.10;17.13;;;1.30;99.90;;;;;;5043788;28;20021;-76
2023/02/03 08:10:00;;;;;;;37.00;16.70;;;1.40;99.90;;;;;;5042519;28;20033;-76
2023/02/03 08:12:26;;;;;;;39.33;20.35;;;1.30;99.90;;;;;;5051690;28;20055;-77
2023/02/03 08:14:51;;;;;;;42.05;19.30;;;1.30;99.90;;;;;;5052838;28;20032;-77
2023/02/03 08:17:17;;;;;;;37.67;17.88;;;1.40;99.90;;;;;;5052229;28;20037;-77
2023/02/03 08:19:43;;;;;;;44.60;20.95;;;1.50;99.90;;;;;;5052525;28;20167;-75
2023/02/03 08:22:14;;;;;;;40.28;20.25;;;1.50;99.90;;;;;;5050174;28;20207;-75
2023/02/03 08:24:50;;;;;;;44.90;24.58;;;1.50;99.90;;;;;;5040195;28;20027;-76
2023/02/03 08:27:18;;;;;;;43.42;20.98;;;1.60;99.90;;;;;;5042238;28;20096;-76
2023/02/03 08:29:45;;;;;;;45.10;21.65;;;1.80;99.90;;;;;;5049651;28;20111;-75
2023/02/03 08:32:13;;;;;;;40.55;20.48;;;1.80;99.90;;;;;;5047162;28;20025;-77
2023/02/03 08:34:40;;;;;;;50.85;23.08;;;1.80;99.90;;;;;;5043724;28;20014;-78
2023/02/03 08:37:06;;;;;;;43.53;21.23;;;1.80;99.90;;;;;;5043549;28;20426;-75
2023/02/03 08:39:33;;;;;;;45.25;24.63;;;1.70;99.90;;;;;;5052364;28;20418;-77
2023/02/03 08:42:02;;;;;;;44.95;23.35;;;1.80;99.90;;;;;;5036175;28;20096;-77
2023/02/03 08:44:30;;;;;;;37.75;17.95;;;1.80;99.90;;;;;;5034257;28;20057;-78
2023/02/03 08:46:56;;;;;;;42.95;20.25;;;1.90;99.90;;;;;;5033499;28;20539;-80
2023/02/03 08:49:23;;;;;;;40.22;21.65;;;1.90;99.90;;;;;;5041790;28;20095;-79
2023/02/03 08:51:49;;;;;;;34.22;18.90;;;1.90;99.90;;;;;;5044870;28;20013;-77
2023/02/03 08:54:15;;;;;;;37.60;19.65;;;1.90;99.90;;;;;;5047140;28;20025;-78
2023/02/03 08:56:41;;;;;;;34.75;20.08;;;2.00;99.90;;;;;;5040949;28;20571;-79
2023/02/03 08:59:07;;;;;;;41.97;19.88;;;1.90;99.90;;;;;;5036237;28;20025;-78
2023/02/03 09:01:33;;;;;;;34.03;16.45;;;1.90;99.90;;;;;;5035129;28;20032;-80
2023/02/03 09:04:02;;;;;;;37.05;19.15;;;2.00;99.90;;;;;;5037563;28;20431;-78
2023/02/03 09:06:29;;;;;;;40.15;21.13;;;1.90;99.90;;;;;;5035133;28;20500;-78
2023/02/03 09:08:56;;;;;;;36.13;18.55;;;1.90;99.90;;;;;;5033838;28;20045;-77
2023/02/03 09:11:22;;;;;;;35.95;18.65;;;1.90;99.90;;;;;;5024144;28;20029;-79
2023/02/03 09:13:48;;;;;;;32.60;15.98;;;2.00;99.90;;;;;;5037686;28;20423;-77
2023/02/03 09:16:16;;;;;;;38.47;18.90;;;2.00;99.90;;;;;;5033134;28;20021;-79
2023/02/03 09:18:43;;;;;;;40.35;20.35;;;2.00;99.90;;;;;;5034966;28;20041;-78
2023/02/03 09:21:10;;;;;;;35.38;20.10;;;2.10;99.90;;;;;;5035107;28;20026;-81
2023/02/03 09:23:37;;;;;;;37.70;19.83;;;2.10;99.90;;;;;;5044631;28;20025;-78
2023/02/03 09:26:07;;;;;;;41.67;23.27;;;2.10;99.90;;;;;;5046656;28;20058;-80
2023/02/03 09:28:33;;;;;;;35.30;20.70;;;2.20;99.90;;;;;;5052208;28;20452;-81
2023/02/03 09:31:05;;;;;;;34.85;17.40;;;2.30;99.90;;;;;;5051706;28;20431;-78
2023/02/03 09:33:32;;;;;;;33.28;17.40;;;2.30;99.90;;;;;;5048863;28;20427;-78
2023/02/03 09:35:58;;;;;;;21.13;11.50;;;2.40;99.90;;;;;;5051873;28;20476;-80
2023/02/03 09:38:25;;;;;;;32.05;15.10;;;2.40;99.90;;;;;;5051749;28;20060;-79
2023/02/03 09:41:11;;;;;;;32.40;17.63;;;2.40;99.90;;;;;;5052383;28;20028;-81
2023/02/03 09:43:55;;;;;;;34.63;18.63;;;2.20;99.90;;;;;;5047748;28;20029;-81
2023/02/03 09:46:28;;;;;;;32.03;16.70;;;2.10;99.90;;;;;;5028148;28;20427;-81
2023/02/03 09:49:05;;;;;;;24.92;13.70;;;2.10;99.90;;;;;;5045772;28;20025;-82
2023/02/03 09:51:39;;;;;;;26.70;15.30;;;2.10;99.90;;;;;;5045815;28;20094;-83
2023/02/03 09:54:38;;;;;;;34.00;19.00;;;2.00;99.90;;;;;;5041885;28;20427;-80
2023/02/03 09:57:12;;;;;;;30.30;16.67;;;2.10;99.90;;;;;;5040674;28;20033;-80
2023/02/03 09:59:39;;;;;;;28.15;16.13;;;2.20;99.90;;;;;;5025321;28;20021;-82
2023/02/03 10:02:34;;;;;;;27.95;14.52;;;2.30;99.90;;;;;;5033322;28;20032;-81
2023/02/03 10:05:23;;;;;;;24.45;12.93;;;2.30;99.90;;;;;;5012178;28;20033;-82
2023/02/03 10:08:17;;;;;;;30.00;16.10;;;2.30;99.90;;;;;;5045390;28;20373;-80
2023/02/03 10:11:08;;;;;;;27.75;14.82;;;2.20;99.90;;;;;;5029042;28;20433;-78
2023/02/03 10:13:42;;;;;;;30.90;16.27;;;2.30;99.90;;;;;;5046244;28;20333;-79
2023/02/03 10:16:21;;;;;;;22.95;13.95;;;2.30;99.90;;;;;;5047874;28;20053;-78
2023/02/03 10:18:50;;;;;;;29.65;14.73;;;2.30;99.90;;;;;;5026451;28;20040;-79
2023/02/03 10:21:41;;;;;;;27.73;15.48;;;2.20;99.90;;;;;;5038211;28;20419;-80
2023/02/03 10:24:16;;;;;;;28.85;15.07;;;2.30;99.90;;;;;;5040688;28;20139;-79
2023/02/03 10:26:42;;;;;;;25.73;13.13;;;2.30;99.90;;;;;;5041862;28;20052;-80
2023/02/03 10:29:34;;;;;;;25.98;14.35;;;2.40;99.90;;;;;;5050935;28;20060;-80
2023/02/03 10:32:01;;;;;;;26.73;13.57;;;2.40;99.90;;;;;;5039482;28;20025;-80
2023/02/03 10:34:27;;;;;;;27.92;17.35;;;2.50;99.90;;;;;;5051192;28;20109;-80
2023/02/03 10:36:53;;;;;;;30.70;16.98;;;2.60;99.90;;;;;;5051078;28;20116;-81
2023/02/03 10:39:38;;;;;;;28.92;16.63;;;2.70;99.90;;;;;;5050853;28;20040;-79
2023/02/03 10:42:05;;;;;;;24.42;13.00;;;2.80;99.90;;;;;;5038169;28;20029;-80
2023/02/03 10:44:42;;;;;;;30.42;14.60;;;2.80;99.90;;;;;;5051210;28;20031;-77
2023/02/03 10:47:23;;;;;;;36.45;22.98;;;2.70;99.90;;;;;;5051178;28;20036;-79
2023/02/03 10:49:57;;;;;;;27.77;14.63;;;2.60;99.90;;;;;;5050699;28;20047;-79
2023/02/03 10:52:34;;;;;;;30.45;15.57;;;2.70;99.90;;;;;;5051572;28;20024;-82
2023/02/03 10:55:28;;;;;;;25.55;12.73;;;2.60;99.90;;;;;;5052982;28;20095;-79
2023/02/03 10:57:55;;;;;;;26.85;13.00;;;2.60;99.90;;;;;;5054593;28;20048;-78
2023/02/03 11:00:21;;;;;;;27.83;15.23;;;2.50;99.90;;;;;;5054431;28;20017;-78
2023/02/03 11:02:56;;;;;;;30.88;15.80;;;2.50;99.90;;;;;;5036423;28;20036;-79
2023/02/03 11:05:24;;;;;;;27.80;15.48;;;2.40;99.90;;;;;;5054191;28;20025;-80
2023/02/03 11:07:51;;;;;;;25.33;13.50;;;2.50;99.90;;;;;;5054151;28;20040;-78
2023/02/03 11:10:26;;;;;;;29.63;16.93;;;2.50;99.90;;;;;;5054224;28;20086;-79
2023/02/03 11:13:12;;;;;;;28.23;16.45;;;2.50;99.90;;;;;;5054567;28;20079;-79
2023/02/03 11:15:53;;;;;;;23.92;14.43;;;2.50;99.90;;;;;;5054048;28;20017;-79
2023/02/03 11:18:39;;;;;;;29.50;13.82;;;2.60;99.90;;;;;;5053387;28;20079;-78
2023/02/03 11:21:09;;;;;;;22.20;12.63;;;2.60;99.90;;;;;;5051851;28;20027;-81
2023/02/03 11:23:35;;;;;;;34.58;19.55;;;2.50;99.90;;;;;;5049803;28;20017;-77
2023/02/03 11:26:16;;;;;;;26.63;15.45;;;2.50;99.90;;;;;;5044718;28;20091;-78
2023/02/03 11:28:45;;;;;;;32.78;16.13;;;2.60;99.90;;;;;;5053871;28;20065;-77
2023/02/03 11:31:24;;;;;;;28.92;15.55;;;2.50;99.90;;;;;;5035849;28;20027;-78
2023/02/03 11:33:54;;;;;;;23.67;10.73;;;2.50;99.90;;;;;;5023572;28;20053;-78
2023/02/03 11:36:20;;;;;;;23.60;12.68;;;2.60;99.90;;;;;;5037996;28;20021;-78
2023/02/03 11:38:46;;;;;;;26.52;14.45;;;2.50;99.90;;;;;;5051616;28;20151;-82
2023/02/03 11:41:20;;;;;;;25.50;13.02;;;2.50;99.90;;;;;;5049642;28;20025;-79
2023/02/03 11:43:46;;;;;;;22.55;12.93;;;2.70;99.90;;;;;;5041256;28;20021;-80
2023/02/03 11:46:14;;;;;;;28.38;12.50;;;2.70;99.90;;;;;;5050063;28;20025;-79
2023/02/03 11:48:40;;;;;;;;;;;2.80;99.90;;;;;;5053190;28;20357;-78
2023/02/03 11:51:35;;;;;;;27.60;14.60;;;2.80;99.90;;;;;;5051173;28;19950;-79
2023/02/03 11:54:29;;;;;;;26.02;13.07;;;2.80;99.90;;;;;;5024518;28;20025;-82
2023/02/03 11:57:04;;;;;;;22.17;14.68;;;2.90;99.90;;;;;;5033304;28;20040;-81
2023/02/03 11:59:57;;;;;;;21.33;13.88;;;2.90;99.90;;;;;;5041178;28;20032;-80
2023/02/03 12:03:00;;;;;;;22.65;12.63;;;2.90;99.90;;;;;;5034347;28;20024;-87
2023/02/03 12:05:39;;;;;;;29.08;15.63;;;2.90;99.90;;;;;;5038580;28;20052;-79
2023/02/03 12:08:13;;;;;;;25.55;14.60;;;3.10;99.90;;;;;;5035037;28;20060;-77
2023/02/03 12:10:41;;;;;;;23.23;16.50;;;3.10;99.90;;;;;;5036209;28;20105;-77
2023/02/03 12:13:45;;;;;;;24.27;15.30;;;3.20;99.90;;;;;;5036456;28;20104;-76
2023/02/03 12:16:16;;;;;;;24.75;14.35;;;3.20;99.90;;;;;;5036406;28;20041;-80
2023/02/03 12:18:57;;;;;;;23.88;15.23;;;3.20;99.90;;;;;;5043043;28;20169;-77
2023/02/03 12:21:29;;;;;;;24.95;14.40;;;3.20;99.90;;;;;;5036251;28;20025;-79
2023/02/03 12:24:42;;;;;;;23.73;15.18;;;3.20;99.90;;;;;;5028871;28;20040;-78
2023/02/03 12:27:22;;;;;;;30.63;16.08;;;3.10;99.80;;;;;;5000373;28;20085;-75
2023/02/03 12:30:11;;;;;;;23.02;13.60;;;3.20;99.90;;;;;;5056952;28;20021;-77
2023/02/03 12:32:48;;;;;;;17.30;11.60;;;3.20;99.70;;;;;;5053101;28;20021;-78
2023/02/03 12:35:43;;;;;;;24.73;12.43;;;3.10;99.20;;;;;;5035773;28;20022;-77
2023/02/03 12:38:20;;;;;;;21.70;11.85;;;3.00;99.10;;;;;;5038937;28;20082;-82
2023/02/03 12:40:58;;;;;;;19.50;11.47;;;2.90;99.20;;;;;;5031117;28;20044;-81
2023/02/03 12:43:36;;;;;;;16.45;9.43;;;2.90;98.90;;;;;;5052688;28;20246;-80
2023/02/03 12:46:08;;;;;;;;;;;2.80;98.90;;;;;;5045219;28;20021;-80
2023/02/03 12:48:54;;;;;;;20.80;13.43;;;2.90;99.20;;;;;;5028419;28;20359;-80
2023/02/03 12:51:47;;;;;;;24.70;14.07;;;2.90;99.30;;;;;;4986191;28;20042;-81
2023/02/03 12:54:22;;;;;;;21.75;11.85;;;3.00;99.20;;;;;;5026406;28;20119;-81
2023/02/03 12:56:50;;;;;;;17.45;10.40;;;3.00;99.00;;;;;;5035896;28;20116;-80
2023/02/03 12:59:22;;;;;;;21.33;12.82;;;3.00;99.00;;;;;;5033939;28;20021;-77
2023/02/03 13:02:23;;;;;;;19.05;9.35;;;3.00;99.00;;;;;;5029776;28;20021;-77